createdAt,value
2022-09-01T00:00:29.153Z,85.28
2022-09-01T00:02:57.336Z,85.31
2022-09-01T00:05:25.653Z,85.69
2022-09-01T00:07:55.084Z,85.42
2022-09-01T00:10:23.330Z,85.57
2022-09-01T00:12:51.340Z,85.63
2022-09-01T00:15:19.538Z,85.05
2022-09-01T00:17:47.734Z,85.10
2022-09-01T00:20:20.138Z,84.99
2022-09-01T00:22:48.737Z,85.21
2022-09-01T00:25:20.412Z,85.27
2022-09-01T00:27:49.650Z,85.14
2022-09-01T00:30:17.821Z,84.97
2022-09-01T00:32:46.952Z,85.34
2022-09-01T00:35:15.515Z,85.48
2022-09-01T00:37:43.570Z,85.28
2022-09-01T00:40:13.927Z,85.56
2022-09-01T00:42:46.679Z,85.18
2022-09-01T00:45:14.858Z,85.52
2022-09-01T00:47:43.432Z,85.54
2022-09-01T00:50:12.776Z,85.78
2022-09-01T00:52:44.022Z,85.85
2022-09-01T00:55:15.043Z,85.51
2022-09-01T00:57:45.784Z,85.52
2022-09-01T01:00:20.253Z,85.24
2022-09-01T01:02:53.835Z,85.38
2022-09-01T01:05:23.423Z,85.46
2022-09-01T01:07:51.565Z,85.40
2022-09-01T01:10:22.347Z,85.30
2022-09-01T01:12:52.690Z,85.48
2022-09-01T01:15:21.163Z,85.64
2022-09-01T01:17:49.224Z,85.73
2022-09-01T01:20:36.086Z,85.46
2022-09-01T01:23:11.276Z,85.56
2022-09-01T01:25:45.267Z,85.72
2022-09-01T01:28:16.658Z,85.60
2022-09-01T01:30:51.129Z,85.46
2022-09-01T01:33:20.828Z,85.28
2022-09-01T01:35:50.689Z,85.45
2022-09-01T01:38:20.866Z,85.19
2022-09-01T01:40:53.956Z,85.21
2022-09-01T01:43:23.893Z,85.09
2022-09-01T01:45:54.813Z,85.24
2022-09-01T01:48:28.252Z,84.96
2022-09-01T01:50:59.790Z,85.34
2022-09-01T01:53:29.025Z,85.07
2022-09-01T01:56:00.147Z,85.11
2022-09-01T01:58:32.700Z,85.13
2022-09-01T02:01:01.093Z,85.22
2022-09-01T02:03:38.554Z,85.52
2022-09-01T02:06:09.834Z,85.65
2022-09-01T02:08:39.480Z,84.99
2022-09-01T02:11:09.302Z,85.19
2022-09-01T02:13:37.486Z,85.08
2022-09-01T02:16:13.157Z,85.03
2022-09-01T02:18:44.383Z,85.29
2022-09-01T02:21:18.367Z,84.51
2022-09-01T02:23:47.671Z,84.64
2022-09-01T02:26:19.256Z,84.47
2022-09-01T02:28:54.736Z,84.47
2022-09-01T02:31:28.497Z,84.50
2022-09-01T02:33:59.041Z,84.83
2022-09-01T02:36:28.117Z,84.77
2022-09-01T02:38:57.046Z,84.52
2022-09-01T02:41:32.383Z,84.42
2022-09-01T02:44:02.518Z,84.61
2022-09-01T02:46:31.343Z,84.42
2022-09-01T02:49:00.674Z,85.01
2022-09-01T02:51:29.304Z,84.87
2022-09-01T02:53:57.953Z,84.87
2022-09-01T02:56:28.233Z,84.51
2022-09-01T02:58:56.744Z,84.45
2022-09-01T03:01:29.218Z,84.81
2022-09-01T03:04:01.116Z,84.61
2022-09-01T03:06:30.749Z,84.71
2022-09-01T03:09:00.697Z,84.55
2022-09-01T03:11:32.598Z,84.72
2022-09-01T03:14:00.983Z,84.81
2022-09-01T03:16:31.489Z,84.65
2022-09-01T03:19:00.264Z,84.47
2022-09-01T03:21:29.565Z,84.75
2022-09-01T03:23:58.274Z,84.67
2022-09-01T03:26:26.541Z,84.91
2022-09-01T03:28:57.298Z,84.72
2022-09-01T03:31:27.566Z,85.03
2022-09-01T03:34:01.642Z,84.45
2022-09-01T03:36:34.397Z,84.52
2022-09-01T03:39:02.910Z,84.80
2022-09-01T03:41:33.000Z,84.74
2022-09-01T03:44:02.514Z,84.61
2022-09-01T03:46:36.843Z,85.43
2022-09-01T03:49:07.541Z,85.22
2022-09-01T03:51:39.170Z,85.39
2022-09-01T03:54:10.666Z,85.07
2022-09-01T03:56:41.755Z,85.19
2022-09-01T03:59:17.693Z,85.01
2022-09-01T04:01:47.772Z,85.41
2022-09-01T04:04:17.024Z,85.08
2022-09-01T04:06:46.603Z,85.01
2022-09-01T04:09:15.524Z,85.05
2022-09-01T04:11:47.090Z,85.31
2022-09-01T04:14:19.954Z,85.19
2022-09-01T04:17:07.404Z,85.47
2022-09-01T04:19:39.325Z,85.14
2022-09-01T04:22:13.464Z,85.50
2022-09-01T04:24:45.760Z,85.39
2022-09-01T04:27:15.350Z,85.54
2022-09-01T04:29:46.830Z,85.41
2022-09-01T04:32:15.718Z,85.65
2022-09-01T04:34:47.070Z,85.38
2022-09-01T04:37:19.444Z,85.11
2022-09-01T04:39:56.670Z,85.31
2022-09-01T04:42:27.517Z,85.15
2022-09-01T04:44:59.039Z,85.18
2022-09-01T04:51:10.616Z,85.89
2022-09-01T04:53:52.310Z,85.83
2022-09-01T04:56:23.116Z,85.90
2022-09-01T04:59:12.129Z,85.64
2022-09-01T05:01:45.372Z,86.08
2022-09-01T05:04:19.251Z,85.93
2022-09-01T05:06:50.401Z,85.69
2022-09-01T05:09:20.965Z,85.70
2022-09-01T05:12:11.021Z,85.96
2022-09-01T05:14:44.136Z,85.79
2022-09-01T05:17:14.270Z,85.24
2022-09-01T05:19:45.080Z,85.25
2022-09-01T05:22:14.445Z,85.36
2022-09-01T05:24:45.773Z,85.20
2022-09-01T05:27:15.233Z,85.41
2022-09-01T05:29:46.985Z,85.40
2022-09-01T05:32:16.438Z,85.53
2022-09-01T05:34:45.235Z,85.44
2022-09-01T05:37:14.627Z,85.38
2022-09-01T05:39:42.804Z,85.43
2022-09-01T05:42:11.347Z,85.74
2022-09-01T05:44:44.156Z,85.56
2022-09-01T05:47:20.546Z,85.37
2022-09-01T05:50:19.276Z,85.33
2022-09-01T05:52:48.237Z,85.39
2022-09-01T05:55:16.720Z,85.17
2022-09-01T05:57:48.158Z,85.32
2022-09-01T06:00:18.713Z,85.17
2022-09-01T06:02:50.024Z,85.46
2022-09-01T06:05:23.834Z,85.15
2022-09-01T06:07:57.299Z,85.62
2022-09-01T06:10:25.720Z,85.61
2022-09-01T06:12:54.019Z,85.85
2022-09-01T06:15:24.817Z,85.73
2022-09-01T06:17:55.063Z,85.40
2022-09-01T06:20:24.747Z,85.46
2022-09-01T06:22:53.673Z,85.37
2022-09-01T06:25:22.401Z,85.28
2022-09-01T06:27:52.451Z,85.63
2022-09-01T06:30:24.395Z,85.45
2022-09-01T06:33:13.597Z,85.54
2022-09-01T06:35:47.272Z,85.46
2022-09-01T06:38:17.620Z,85.37
2022-09-01T06:40:48.777Z,85.48
2022-09-01T06:43:20.525Z,85.38
2022-09-01T06:45:54.727Z,85.33
2022-09-01T06:48:27.617Z,85.42
2022-09-01T06:51:21.333Z,85.12
2022-09-01T06:53:59.390Z,85.09
2022-09-01T06:56:34.123Z,85.33
2022-09-01T06:59:15.603Z,85.10
2022-09-01T07:01:49.108Z,85.23
2022-09-01T07:04:21.586Z,84.55
2022-09-01T07:07:53.267Z,84.79
2022-09-01T07:10:21.313Z,84.70
2022-09-01T07:13:05.964Z,84.80
2022-09-01T07:24:10.247Z,82.89
2022-09-01T07:26:47.191Z,82.86
2022-09-01T07:29:16.600Z,82.47
2022-09-01T07:32:44.157Z,82.21
2022-09-01T07:34:40.604Z,81.57
2022-09-01T07:42:56.418Z,83.80
2022-09-01T07:43:27.266Z,80.38
2022-09-01T07:51:57.599Z,79.48
2022-09-01T07:54:28.573Z,79.58
2022-09-01T07:56:59.657Z,79.59
2022-09-01T07:59:29.557Z,78.43
2022-09-01T08:02:05.810Z,78.10
2022-09-01T08:04:34.515Z,77.76
2022-09-01T08:07:03.221Z,76.48
2022-09-01T08:09:37.757Z,73.02
2022-09-01T08:12:09.500Z,71.28
2022-09-01T08:15:12.767Z,72.50
2022-09-01T08:17:57.802Z,74.63
2022-09-01T08:20:30.419Z,75.20
2022-09-01T08:23:19.425Z,75.67
2022-09-01T08:25:49.034Z,70.41
2022-09-01T08:28:26.635Z,71.33
2022-09-01T08:30:56.643Z,69.40
2022-09-01T08:33:26.483Z,70.76
2022-09-01T08:35:55.388Z,69.94
2022-09-01T08:38:23.777Z,68.80
2022-09-01T08:40:57.071Z,68.15
2022-09-01T08:43:45.141Z,68.50
2022-09-01T08:46:17.957Z,69.66
2022-09-01T08:52:00.919Z,69.53
2022-09-01T08:54:36.305Z,68.55
2022-09-01T08:57:07.897Z,68.14
2022-09-01T09:00:09.420Z,68.27
2022-09-01T09:02:58.961Z,67.81
2022-09-01T09:05:34.788Z,67.24
2022-09-01T09:08:18.135Z,68.31
2022-09-01T09:10:56.508Z,67.41
2022-09-01T09:13:33.547Z,68.58
2022-09-01T09:16:08.136Z,66.69
2022-09-01T09:18:54.706Z,65.93
2022-09-01T09:21:27.096Z,67.20
2022-09-01T09:23:59.389Z,65.49
2022-09-01T09:26:42.052Z,65.81
2022-09-01T09:29:10.556Z,65.76
2022-09-01T09:31:45.782Z,63.02
2022-09-01T09:34:19.587Z,64.06
2022-09-01T09:36:53.985Z,63.84
2022-09-01T09:39:23.369Z,61.92
2022-09-01T09:42:07.733Z,62.58
2022-09-01T09:44:44.196Z,61.70
2022-09-01T09:47:46.071Z,61.70
2022-09-01T09:50:23.023Z,62.18
2022-09-01T09:52:53.020Z,64.49
2022-09-01T09:55:27.032Z,61.32
2022-09-01T09:58:00.425Z,61.92
2022-09-01T10:00:30.890Z,60.98
2022-09-01T10:03:08.066Z,63.21
2022-09-01T10:05:43.312Z,63.50
2022-09-01T10:08:14.894Z,62.57
2022-09-01T10:10:45.753Z,62.36
2022-09-01T10:13:26.941Z,61.38
2022-09-01T10:15:57.910Z,62.00
2022-09-01T10:18:32.349Z,63.08
2022-09-01T10:21:02.998Z,61.73
2022-09-01T10:23:34.935Z,62.54
2022-09-01T10:26:09.063Z,62.25
2022-09-01T10:28:49.514Z,62.53
2022-09-01T10:31:44.070Z,61.93
2022-09-01T10:34:19.497Z,60.98
2022-09-01T10:36:54.972Z,61.67
2022-09-01T10:39:28.338Z,59.70
2022-09-01T10:42:07.140Z,58.14
2022-09-01T10:44:36.630Z,58.57
2022-09-01T10:47:13.811Z,57.64
2022-09-01T10:50:01.247Z,58.25
2022-09-01T10:53:06.275Z,55.81
2022-09-01T10:55:46.328Z,55.92
2022-09-01T11:05:16.836Z,56.92
2022-09-01T11:08:09.088Z,55.89
2022-09-01T11:10:47.673Z,56.88
2022-09-01T11:13:30.658Z,54.88
2022-09-01T11:19:47.610Z,57.24
2022-09-01T11:22:26.748Z,57.56
2022-09-01T11:25:40.225Z,57.11
2022-09-01T11:28:27.644Z,54.14
2022-09-01T11:30:58.405Z,54.89
2022-09-01T11:33:44.226Z,55.38
2022-09-01T11:36:22.156Z,55.52
2022-09-01T11:38:53.917Z,55.89
2022-09-01T11:41:27.468Z,54.52
2022-09-01T11:43:59.238Z,53.49
2022-09-01T11:46:29.687Z,54.61
2022-09-01T11:48:59.293Z,53.82
2022-09-01T11:51:27.405Z,55.41
2022-09-01T11:54:01.941Z,54.31
2022-09-01T11:56:30.307Z,54.68
2022-09-01T11:58:58.618Z,53.45
2022-09-01T12:01:33.595Z,55.03
2022-09-01T12:04:20.327Z,54.20
2022-09-01T12:06:54.934Z,55.93
2022-09-01T12:09:33.023Z,55.97
2022-09-01T12:12:01.102Z,54.45
2022-09-01T12:14:43.441Z,54.04
2022-09-01T12:17:21.784Z,54.01
2022-09-01T12:19:50.418Z,54.76
2022-09-01T12:22:21.590Z,52.65
2022-09-01T12:24:53.144Z,52.04
2022-09-01T12:27:23.288Z,53.33
2022-09-01T12:29:51.989Z,52.85
2022-09-01T12:32:20.406Z,52.24
2022-09-01T12:34:59.705Z,51.80
2022-09-01T12:37:29.277Z,53.46
2022-09-01T12:40:24.903Z,51.80
2022-09-01T12:42:54.379Z,51.07
2022-09-01T12:45:40.356Z,51.22
2022-09-01T12:48:09.231Z,51.86
2022-09-01T12:50:44.896Z,50.74
2022-09-01T12:53:32.445Z,51.22
2022-09-01T12:56:16.949Z,52.27
2022-09-01T12:58:49.641Z,51.88
2022-09-01T13:01:32.413Z,51.82
2022-09-01T13:04:25.565Z,51.27
2022-09-01T13:06:54.347Z,49.32
2022-09-01T13:09:22.610Z,50.62
2022-09-01T13:12:08.135Z,48.80
2022-09-01T13:14:36.319Z,50.96
2022-09-01T13:17:06.043Z,49.01
2022-09-01T13:19:42.246Z,50.72
2022-09-01T13:22:10.535Z,49.07
2022-09-01T13:24:39.649Z,50.32
2022-09-01T13:27:24.668Z,48.94
2022-09-01T13:29:52.917Z,46.71
2022-09-01T13:32:22.549Z,44.75
2022-09-01T13:34:52.123Z,44.35
2022-09-01T13:37:21.022Z,47.85
2022-09-01T13:39:49.373Z,46.61
2022-09-01T13:42:19.500Z,46.55
2022-09-01T13:44:52.557Z,46.08
2022-09-01T13:47:31.820Z,45.74
2022-09-01T13:50:09.735Z,44.93
2022-09-01T13:52:39.557Z,46.90
2022-09-01T13:55:09.880Z,47.06
2022-09-01T13:57:39.600Z,47.08
2022-09-01T14:00:11.185Z,47.50
2022-09-01T14:02:40.132Z,48.63
2022-09-01T14:05:09.173Z,50.46
2022-09-01T14:07:37.542Z,50.06
2022-09-01T14:10:07.374Z,48.46
2022-09-01T14:12:35.539Z,49.22
2022-09-01T14:15:17.184Z,47.33
2022-09-01T14:17:47.689Z,48.51
2022-09-01T14:20:19.251Z,47.65
2022-09-01T14:22:47.851Z,47.44
2022-09-01T14:25:17.014Z,47.19
2022-09-01T14:27:45.874Z,46.65
2022-09-01T14:30:19.556Z,46.35
2022-09-01T14:33:13.724Z,43.82
2022-09-01T14:35:43.361Z,46.71
2022-09-01T14:38:11.945Z,50.81
2022-09-01T14:40:41.337Z,43.52
2022-09-01T14:43:12.673Z,46.29
2022-09-01T14:45:44.699Z,46.98
2022-09-01T14:48:14.306Z,44.98
2022-09-01T14:50:43.964Z,44.65
2022-09-01T14:53:12.554Z,44.55
2022-09-01T14:55:44.083Z,44.58
2022-09-01T14:58:12.364Z,44.90
2022-09-01T15:00:41.738Z,40.71
2022-09-01T15:03:11.270Z,40.04
2022-09-01T15:05:40.433Z,40.63
2022-09-01T15:08:10.319Z,41.83
2022-09-01T15:10:41.177Z,43.98
2022-09-01T15:13:09.618Z,41.71
2022-09-01T15:15:39.081Z,42.15
2022-09-01T15:18:07.468Z,42.88
2022-09-01T15:20:46.688Z,42.50
2022-09-01T15:23:16.307Z,36.80
2022-09-01T15:25:44.525Z,41.01
2022-09-01T15:28:13.107Z,37.76
2022-09-01T15:30:42.006Z,39.39
2022-09-01T15:33:15.553Z,41.32
2022-09-01T15:35:46.422Z,42.63
2022-09-01T15:38:17.596Z,39.54
2022-09-01T15:40:52.020Z,39.17
2022-09-01T15:43:26.327Z,41.97
2022-09-01T15:45:54.511Z,37.38
2022-09-01T15:48:22.617Z,37.10
2022-09-01T15:50:52.329Z,38.63
2022-09-01T15:53:20.773Z,40.53
2022-09-01T15:55:50.096Z,38.03
2022-09-01T15:58:20.640Z,36.58
2022-09-01T16:00:48.855Z,38.64
2022-09-01T16:03:17.765Z,37.81
2022-09-01T16:05:45.799Z,37.52
2022-09-01T16:08:15.216Z,39.89
2022-09-01T16:10:43.401Z,38.42
2022-09-01T16:13:13.088Z,36.79
2022-09-01T16:15:47.225Z,38.17
2022-09-01T16:18:27.787Z,38.79
2022-09-01T16:21:00.723Z,39.48
2022-09-01T16:23:35.570Z,38.96
2022-09-01T16:26:03.679Z,39.34
2022-09-01T16:28:35.693Z,38.52
2022-09-01T16:31:08.078Z,38.95
2022-09-01T16:36:19.807Z,39.96
2022-09-01T16:38:51.654Z,39.88
2022-09-01T16:41:43.892Z,41.05
2022-09-01T16:44:24.173Z,40.71
2022-09-01T16:47:02.642Z,40.52
2022-09-01T16:49:36.535Z,40.45
2022-09-01T16:52:10.013Z,41.34
2022-09-01T16:54:49.939Z,41.37
2022-09-01T16:57:24.830Z,40.56
2022-09-01T16:59:56.039Z,42.01
2022-09-01T17:02:35.929Z,42.11
2022-09-01T17:05:12.670Z,42.98
2022-09-01T17:07:50.435Z,43.21
2022-09-01T17:10:30.587Z,44.50
2022-09-01T17:12:59.412Z,43.21
2022-09-01T17:15:36.331Z,43.87
2022-09-01T17:18:10.771Z,45.23
2022-09-01T17:20:55.597Z,45.63
2022-09-01T17:23:29.077Z,44.84
2022-09-01T17:26:01.794Z,45.58
2022-09-01T17:28:33.929Z,46.61
2022-09-01T17:31:06.210Z,45.92
2022-09-01T17:33:41.685Z,46.67
2022-09-01T17:36:17.945Z,45.88
2022-09-01T17:38:54.161Z,46.89
2022-09-01T17:41:34.382Z,47.82
2022-09-01T17:44:12.730Z,47.01
2022-09-01T17:46:44.666Z,46.49
2022-09-01T17:49:18.789Z,46.42
2022-09-01T17:51:53.451Z,46.70
2022-09-01T17:54:28.740Z,46.22
2022-09-01T17:57:02.068Z,46.03
2022-09-01T17:59:36.828Z,46.64
2022-09-01T18:02:20.995Z,46.69
2022-09-01T18:04:53.875Z,46.59
2022-09-01T18:07:35.916Z,47.54
2022-09-01T18:10:06.922Z,46.58
2022-09-01T18:12:38.720Z,47.17
2022-09-01T18:15:11.117Z,47.45
2022-09-01T18:17:42.065Z,47.15
2022-09-01T18:20:12.210Z,47.74
2022-09-01T18:22:49.487Z,47.07
2022-09-01T18:25:21.084Z,49.10
2022-09-01T18:27:52.530Z,47.88
2022-09-01T18:30:42.750Z,47.92
2022-09-01T18:33:20.387Z,49.20
2022-09-01T18:35:55.849Z,49.26
2022-09-01T18:38:30.435Z,49.45
2022-09-01T18:41:06.586Z,48.87
2022-09-01T18:43:38.891Z,49.24
2022-09-01T18:46:16.631Z,48.97
2022-09-01T18:49:01.123Z,49.30
2022-09-01T18:51:41.816Z,49.92
2022-09-01T18:54:14.773Z,49.69
2022-09-01T18:56:46.059Z,51.01
2022-09-01T18:59:36.756Z,51.29
2022-09-01T19:02:20.457Z,51.47
2022-09-01T19:04:51.684Z,52.24
2022-09-01T19:07:27.343Z,52.18
2022-09-01T19:10:00.084Z,52.16
2022-09-01T19:12:33.568Z,52.29
2022-09-01T19:15:10.117Z,52.77
2022-09-01T19:18:04.200Z,53.09
2022-09-01T19:20:37.959Z,54.24
2022-09-01T19:23:09.421Z,53.83
2022-09-01T19:25:38.055Z,53.99
2022-09-01T19:28:12.973Z,53.86
2022-09-01T19:30:44.435Z,54.07
2022-09-01T19:33:14.258Z,54.50
2022-09-01T19:35:44.892Z,54.56
2022-09-01T19:38:17.703Z,54.50
2022-09-01T19:40:48.047Z,55.10
2022-09-01T19:43:18.220Z,54.57
2022-09-01T19:45:59.408Z,55.07
2022-09-01T19:48:30.605Z,55.20
2022-09-01T19:51:02.899Z,55.63
2022-09-01T19:53:42.417Z,55.69
2022-09-01T19:56:13.364Z,56.09
2022-09-01T19:58:47.897Z,56.83
2022-09-01T20:01:21.320Z,56.48
2022-09-01T20:03:53.655Z,56.56
2022-09-01T20:06:32.248Z,57.15
2022-09-01T20:09:06.353Z,57.21
2022-09-01T20:11:44.715Z,57.20
2022-09-01T20:14:33.199Z,57.11
2022-09-01T20:17:05.194Z,56.76
2022-09-01T20:19:39.481Z,57.25
2022-09-01T20:22:20.579Z,56.80
2022-09-01T20:24:48.914Z,57.28
2022-09-01T20:27:32.125Z,57.87
2022-09-01T20:30:03.782Z,57.60
2022-09-01T20:32:41.135Z,58.34
2022-09-01T20:35:13.548Z,58.31
2022-09-01T20:37:44.977Z,58.43
2022-09-01T20:40:17.005Z,58.51
2022-09-01T20:42:51.796Z,59.01
2022-09-01T20:45:21.851Z,58.84
2022-09-01T20:47:54.767Z,59.08
2022-09-01T20:50:30.634Z,59.49
2022-09-01T20:53:11.496Z,59.50
2022-09-01T20:55:43.283Z,59.86
2022-09-01T20:58:16.077Z,59.86
2022-09-01T21:00:48.548Z,60.28
2022-09-01T21:03:33.835Z,60.18
2022-09-01T21:06:07.317Z,60.46
2022-09-01T21:08:43.128Z,60.68
2022-09-01T21:11:23.403Z,60.92
2022-09-01T21:14:01.038Z,60.76
2022-09-01T21:16:50.794Z,60.38
2022-09-01T21:19:27.448Z,60.61
2022-09-01T21:22:02.686Z,60.52
2022-09-01T21:24:31.065Z,61.12
2022-09-01T21:27:01.932Z,60.76
2022-09-01T21:29:43.696Z,60.71
2022-09-01T21:32:13.876Z,61.18
2022-09-01T21:34:43.827Z,61.42
2022-09-01T21:37:12.228Z,61.72
2022-09-01T21:39:40.298Z,61.97
2022-09-01T21:42:10.391Z,61.92
2022-09-01T21:44:38.597Z,62.23
2022-09-01T21:47:07.184Z,62.43
2022-09-01T21:49:35.317Z,62.84
2022-09-01T21:52:05.320Z,62.69
2022-09-01T21:54:34.153Z,63.29
2022-09-01T21:57:02.196Z,63.73
2022-09-01T21:59:30.469Z,63.66
2022-09-01T22:01:58.613Z,63.53
2022-09-01T22:04:26.932Z,63.30
2022-09-01T22:06:55.093Z,63.26
2022-09-01T22:09:24.534Z,63.46
2022-09-01T22:11:52.759Z,63.50
2022-09-01T22:14:21.670Z,63.58
2022-09-01T22:16:50.473Z,63.37
2022-09-01T22:19:20.160Z,64.21
2022-09-01T22:21:48.517Z,64.23
2022-09-01T22:24:19.329Z,63.79
2022-09-01T22:26:49.453Z,63.76
2022-09-01T22:29:18.485Z,64.31
2022-09-01T22:31:46.601Z,64.40
2022-09-01T22:34:14.832Z,64.48
2022-09-01T22:36:45.714Z,64.17
2022-09-01T22:39:15.263Z,64.56
2022-09-01T22:41:43.389Z,64.80
2022-09-01T22:44:13.203Z,64.70
2022-09-01T22:46:41.642Z,65.07
2022-09-01T22:49:10.282Z,65.54
2022-09-01T22:51:39.613Z,65.34
2022-09-01T22:54:08.032Z,65.65
2022-09-01T22:56:39.076Z,65.15
2022-09-01T22:59:10.733Z,65.64
2022-09-01T23:01:43.479Z,65.54
2022-09-01T23:04:13.885Z,65.94
2022-09-01T23:06:44.870Z,65.60
2022-09-01T23:09:13.002Z,65.58
2022-09-01T23:11:41.615Z,65.78
2022-09-01T23:14:09.631Z,65.52
2022-09-01T23:16:38.068Z,66.15
2022-09-01T23:19:07.680Z,65.77
2022-09-01T23:21:38.174Z,65.60
2022-09-01T23:24:06.597Z,65.90
2022-09-01T23:26:35.140Z,66.68
2022-09-01T23:29:04.477Z,66.84
2022-09-01T23:31:34.763Z,66.43
2022-09-01T23:34:03.713Z,66.90
2022-09-01T23:36:33.700Z,67.03
2022-09-01T23:39:02.037Z,67.41
2022-09-01T23:41:32.419Z,67.97
2022-09-01T23:44:02.868Z,67.88
2022-09-01T23:46:33.726Z,67.82
2022-09-01T23:49:02.310Z,68.10
2022-09-01T23:51:31.000Z,68.11
2022-09-01T23:54:00.684Z,68.25
2022-09-01T23:56:29.820Z,67.97
2022-09-01T23:58:59.490Z,68.29
